Huvudsida
METAR-TAF:

METAR-TAF

Flygplatser :

Sindals flygplats

Sindal, Danmark

latitud: 57-30N, longitud: 010-13E, höjd: 28 m

Aktuellt väderrapport

Denna rapport gjordes för 6 timmar och 13 minuter sedan, klockan 07:50 UTC
Vind 19 kt från väst
Temperatur 15°C
Fuktighet 77%
Tryck 1012 hPa
Sikt 10 km eller mer
Spridda moln på en höjd av 1800 ft, Högtornande cumulus.
Brutna moln på en höjd av 5500 ft

METAR: EKSN 190750Z 27019KT 9999 SCT018TCU BKN055 15/11 Q1012

Tid: 16:03 (14:03 UTC)

Väderprognos

Denna rapport gjordes för 7 timmar och 5 minuter sedan, klockan 06:58 UTC
Prognos gäller från 19 kl. 07 UTC till 19 kl. 14 UTC
Vind 18 kt från väst
Sikt 10 km eller mer
Spridda moln på en höjd av 2500 ft
Temporärt
från 19 kl. 07 UTC till 19 kl. 14 UTC
Vind 20 kt från väst i byarna ända upp till 32 kt

TAF: EKSN 190658Z 1907/1914 27018KT 9999 SCT025 TEMPO 1907/1914 26020G32KT

Aktuella väderrapporter och prognoser från 4000 flygplatser (METAR- och TAF-rapporter).

De tillgängliga stationerna syns som gula och röda prickar på kartan.

För musen över prickarna för att se namnen på stationerna.

Klicka sedan för att få väderrapporter och prognoser.

För att ändra kartan: Klicka på de gröna knapparna med ett svart kors på för att zooma in; den gröna knappen med ett streck på för att zooma ut; eller på de gröna pilarna för angränsande kartor.


METAR-TAF: